Time,TemperatureF,DewpointF,PressureIn,WindDirection,WindDirectionDegrees,WindSpeedMPH,WindSpeedGustMPH,Humidity,HourlyPrecipIn,Conditions,Clouds,dailyrainin,SolarRadiationWatts/m^2,SoftwareType,DateUTC
2013-06-03 00:00:00,67.2,62.2,25.93,ENE,74,1.0,1.0,84,0.00,,,0.00,0,Wunderground v.1.15,2013-06-03 06:00:00,
2013-06-03 00:10:00,67.0,62.0,25.93,ENE,74,0.0,0.0,84,0.00,,,0.00,0,Wunderground v.1.15,2013-06-03 06:10:00,
2013-06-03 00:15:00,67.0,62.0,25.93,ENE,74,0.0,0.0,84,0.00,,,0.00,0,Wunderground v.1.15,2013-06-03 06:15:00,
2013-06-03 00:20:00,66.8,62.1,25.92,ENE,74,0.0,0.0,85,0.00,,,0.00,0,Wunderground v.1.15,2013-06-03 06:20:00,
2013-06-03 00:25:00,66.8,62.1,25.92,ENE,74,0.0,0.0,85,0.00,,,0.00,0,Wunderground v.1.15,2013-06-03 06:25:00,
2013-06-03 00:31:00,66.8,61.8,25.92,ENE,74,0.0,0.0,84,0.00,,,0.00,0,Wunderground v.1.15,2013-06-03 06:31:00,
2013-06-03 00:36:00,67.0,62.3,25.92,ENE,74,0.0,0.0,85,0.00,,,0.00,0,Wunderground v.1.15,2013-06-03 06:36:00,
2013-06-03 00:45:00,67.0,62.3,25.92,ENE,74,0.0,0.0,85,0.00,,,0.00,0,Wunderground v.1.15,2013-06-03 06:45:00,
2013-06-03 00:50:00,67.2,62.5,25.92,ENE,74,0.0,0.0,85,0.00,,,0.00,0,Wunderground v.1.15,2013-06-03 06:50:00,
2013-06-03 00:55:00,67.2,62.5,25.91,ENE,74,0.0,0.0,85,0.00,,,0.00,0,Wunderground v.1.15,2013-06-03 06:55:00,
2013-06-03 01:00:00,67.3,63.0,25.91,ENE,74,0.0,0.0,86,0.00,,,0.00,0,Wunderground v.1.15,2013-06-03 07:00:00,
2013-06-03 01:10:00,67.5,63.2,25.91,East,94,0.0,0.0,86,0.00,,,0.00,0,Wunderground v.1.15,2013-06-03 07:10:00,
2013-06-03 01:15:00,67.7,63.4,25.91,SSE,158,1.0,2.0,86,0.00,,,0.00,0,Wunderground v.1.15,2013-06-03 07:15:00,
2013-06-03 01:25:00,67.8,62.4,25.91,SE,131,1.0,2.0,83,0.00,,,0.00,0,Wunderground v.1.15,2013-06-03 07:25:00,
2013-06-03 01:30:00,67.8,62.8,25.91,SE,131,0.0,0.0,84,0.00,,,0.00,0,Wunderground v.1.15,2013-06-03 07:30:00,
2013-06-03 01:40:00,67.8,62.8,25.91,SE,130,0.0,0.0,84,0.00,,,0.00,0,Wunderground v.1.15,2013-06-03 07:40:00,
2013-06-03 01:50:00,67.7,62.7,25.90,SE,131,0.0,0.0,84,0.00,,,0.00,0,Wunderground v.1.15,2013-06-03 07:50:00,
2013-06-03 01:55:00,67.7,62.7,25.90,SE,131,0.0,0.0,84,0.00,,,0.00,0,Wunderground v.1.15,2013-06-03 07:55:00,
2013-06-03 02:00:00,67.7,63.0,25.90,SE,131,0.0,0.0,85,0.00,,,0.00,0,Wunderground v.1.15,2013-06-03 08:00:00,
2013-06-03 02:05:00,67.5,62.5,25.90,SE,131,0.0,0.0,84,0.00,,,0.00,0,Wunderground v.1.15,2013-06-03 08:05:00,
2013-06-03 02:10:00,67.5,62.8,25.90,SE,131,0.0,0.0,85,0.00,,,0.00,0,Wunderground v.1.15,2013-06-03 08:10:00,
2013-06-03 02:16:00,67.5,62.5,25.89,SE,131,0.0,0.0,84,0.00,,,0.00,0,Wunderground v.1.15,2013-06-03 08:16:00,
2013-06-03 02:25:00,67.2,62.5,25.89,SE,131,0.0,0.0,85,0.00,,,0.00,0,Wunderground v.1.15,2013-06-03 08:25:00,
2013-06-03 02:30:00,67.0,62.3,25.89,SE,131,0.0,0.0,85,0.00,,,0.00,0,Wunderground v.1.15,2013-06-03 08:30:00,
2013-06-03 02:35:00,66.8,62.5,25.89,SE,131,0.0,0.0,86,0.00,,,0.00,0,Wunderground v.1.15,2013-06-03 08:35:00,
2013-06-03 02:40:00,66.5,61.8,25.89,SE,131,0.0,0.0,85,0.00,,,0.00,0,Wunderground v.1.15,2013-06-03 08:40:00,
2013-06-03 02:46:00,66.2,61.6,25.89,SE,131,0.0,0.0,85,0.00,,,0.00,0,Wunderground v.1.15,2013-06-03 08:46:00,
2013-06-03 02:55:00,65.7,61.4,25.89,SE,130,0.0,0.0,86,0.00,,,0.00,0,Wunderground v.1.15,2013-06-03 08:55:00,
2013-06-03 03:00:00,65.4,61.1,25.89,SE,130,0.0,0.0,86,0.00,,,0.00,0,Wunderground v.1.15,2013-06-03 09:00:00,
2013-06-03 03:05:00,65.1,60.8,25.89,SE,131,0.0,0.0,86,0.00,,,0.00,0,Wunderground v.1.15,2013-06-03 09:05:00,
2013-06-03 03:10:00,64.9,60.9,25.89,SE,130,0.0,0.0,87,0.00,,,0.00,0,Wunderground v.1.15,2013-06-03 09:10:00,
2013-06-03 03:16:00,64.7,60.7,25.89,SE,130,0.0,0.0,87,0.00,,,0.00,0,Wunderground v.1.15,2013-06-03 09:16:00,
2013-06-03 03:25:00,64.7,60.7,25.90,SE,131,0.0,0.0,87,0.00,,,0.00,0,Wunderground v.1.15,2013-06-03 09:25:00,
2013-06-03 03:30:00,64.6,60.3,25.90,SE,130,0.0,0.0,86,0.00,,,0.00,0,Wunderground v.1.15,2013-06-03 09:30:00,
2013-06-03 03:40:00,64.6,60.3,25.90,SE,130,0.0,0.0,86,0.00,,,0.00,0,Wunderground v.1.15,2013-06-03 09:40:00,
2013-06-03 03:46:00,64.6,60.3,25.90,SE,131,0.0,0.0,86,0.00,,,0.00,0,Wunderground v.1.15,2013-06-03 09:46:00,
2013-06-03 03:55:00,64.4,60.1,25.90,SE,130,0.0,0.0,86,0.00,,,0.00,0,Wunderground v.1.15,2013-06-03 09:55:00,
2013-06-03 04:00:00,64.4,60.1,25.90,SE,130,0.0,0.0,86,0.00,,,0.00,0,Wunderground v.1.15,2013-06-03 10:00:00,
2013-06-03 04:05:00,64.2,59.9,25.89,SE,132,0.0,0.0,86,0.00,,,0.00,0,Wunderground v.1.15,2013-06-03 10:05:00,
2013-06-03 04:10:00,64.2,59.9,25.89,SE,132,0.0,0.0,86,0.00,,,0.00,0,Wunderground v.1.15,2013-06-03 10:10:00,
2013-06-03 04:16:00,64.1,60.2,25.89,SE,132,0.0,0.0,87,0.00,,,0.00,0,Wunderground v.1.15,2013-06-03 10:16:00,
2013-06-03 04:21:00,64.1,60.2,25.89,SE,132,0.0,0.0,87,0.00,,,0.00,0,Wunderground v.1.15,2013-06-03 10:21:00,
2013-06-03 04:30:00,64.1,60.2,25.89,SE,132,0.0,0.0,87,0.00,,,0.00,0,Wunderground v.1.15,2013-06-03 10:30:00,
2013-06-03 04:35:00,63.9,60.0,25.89,SE,132,0.0,0.0,87,0.00,,,0.00,0,Wunderground v.1.15,2013-06-03 10:35:00,
2013-06-03 04:40:00,64.1,60.2,25.89,SE,132,0.0,0.0,87,0.00,,,0.00,0,Wunderground v.1.15,2013-06-03 10:40:00,
2013-06-03 04:46:00,64.1,60.2,25.89,SE,132,0.0,0.0,87,0.00,,,0.00,0,Wunderground v.1.15,2013-06-03 10:46:00,
2013-06-03 04:55:00,64.1,60.2,25.90,SE,132,0.0,1.0,87,0.00,,,0.00,0,Wunderground v.1.15,2013-06-03 10:55:00,
2013-06-03 05:00:00,64.2,60.2,25.90,SE,132,1.0,1.0,87,0.00,,,0.00,0,Wunderground v.1.15,2013-06-03 11:00:00,
2013-06-03 05:05:00,64.6,61.0,25.89,SE,144,1.0,2.0,88,0.00,,,0.00,0,Wunderground v.1.15,2013-06-03 11:05:00,
2013-06-03 05:10:00,64.7,60.7,25.89,SE,144,2.0,2.0,87,0.00,,,0.00,0,Wunderground v.1.15,2013-06-03 11:10:00,
2013-06-03 05:20:00,64.6,60.6,25.90,SE,144,0.0,0.0,87,0.00,,,0.00,5,Wunderground v.1.15,2013-06-03 11:20:00,
2013-06-03 05:25:00,64.6,61.0,25.90,SE,144,0.0,1.0,88,0.00,,,0.00,11,Wunderground v.1.15,2013-06-03 11:25:00,
2013-06-03 05:30:00,64.7,61.1,25.90,SE,144,0.0,1.0,88,0.00,,,0.00,14,Wunderground v.1.15,2013-06-03 11:30:00,
2013-06-03 05:35:00,64.9,61.3,25.90,SE,144,1.0,1.0,88,0.00,,,0.00,19,Wunderground v.1.15,2013-06-03 11:35:00,
2013-06-03 05:41:00,64.9,60.9,25.90,SE,144,1.0,1.0,87,0.00,,,0.00,28,Wunderground v.1.15,2013-06-03 11:41:00,
2013-06-03 05:50:00,65.4,61.1,25.90,SE,144,1.0,1.0,86,0.00,,,0.00,69,Wunderground v.1.15,2013-06-03 11:50:00,
2013-06-03 05:55:00,65.7,61.4,25.90,SE,144,1.0,1.0,86,0.00,,,0.00,83,Wunderground v.1.15,2013-06-03 11:55:00,
2013-06-03 06:00:00,66.0,61.4,25.91,SSE,157,1.0,1.0,85,0.00,,,0.00,95,Wunderground v.1.15,2013-06-03 12:00:00,
2013-06-03 06:05:00,66.3,61.3,25.91,SSE,157,0.0,1.0,84,0.00,,,0.00,107,Wunderground v.1.15,2013-06-03 12:05:00,
2013-06-03 06:11:00,66.8,61.5,25.91,SSE,160,0.0,1.0,83,0.00,,,0.00,121,Wunderground v.1.15,2013-06-03 12:11:00,
2013-06-03 06:20:00,67.8,61.8,25.91,SSE,160,2.0,2.0,81,0.00,,,0.00,132,Wunderground v.1.15,2013-06-03 12:20:00,
2013-06-03 06:25:00,68.3,61.9,25.91,SSE,161,2.0,5.0,80,0.00,,,0.00,162,Wunderground v.1.15,2013-06-03 12:25:00,
2013-06-03 06:30:00,68.8,61.7,25.92,SSE,158,2.0,2.0,78,0.00,,,0.00,183,Wunderground v.1.15,2013-06-03 12:30:00,
2013-06-03 06:35:00,69.3,62.1,25.92,SE,145,2.0,2.0,78,0.00,,,0.00,204,Wunderground v.1.15,2013-06-03 12:35:00,
2013-06-03 06:41:00,69.8,62.3,25.92,East,96,1.0,1.0,77,0.00,,,0.00,225,Wunderground v.1.15,2013-06-03 12:41:00,
2013-06-03 06:46:00,70.3,62.4,25.92,SSE,154,2.0,2.0,76,0.00,,,0.00,246,Wunderground v.1.15,2013-06-03 12:46:00,
2013-06-03 06:51:00,70.8,62.5,25.92,SSE,150,2.0,2.0,75,0.00,,,0.00,269,Wunderground v.1.15,2013-06-03 12:51:00,
2013-06-03 07:00:00,71.7,62.6,25.92,SSE,165,2.0,2.0,73,0.00,,,0.00,308,Wunderground v.1.15,2013-06-03 13:00:00,
2013-06-03 07:05:00,72.2,62.3,25.92,ENE,73,2.0,3.0,71,0.00,,,0.00,329,Wunderground v.1.15,2013-06-03 13:05:00,
2013-06-03 07:10:00,72.7,62.8,25.92,SSE,150,2.0,2.0,71,0.00,,,0.00,346,Wunderground v.1.15,2013-06-03 13:10:00,
2013-06-03 07:15:00,73.4,62.6,25.93,SSE,157,2.0,2.0,69,0.00,,,0.00,366,Wunderground v.1.15,2013-06-03 13:15:00,
2013-06-03 07:20:00,73.8,62.6,25.92,ENE,71,2.0,2.0,68,0.00,,,0.00,374,Wunderground v.1.15,2013-06-03 13:20:00,
2013-06-03 07:26:00,74.1,62.4,25.93,ESE,109,1.0,2.0,67,0.00,,,0.00,381,Wunderground v.1.15,2013-06-03 13:26:00,
2013-06-03 07:35:00,75.0,62.9,25.93,SSE,157,2.0,2.0,66,0.00,,,0.00,399,Wunderground v.1.15,2013-06-03 13:35:00,
2013-06-03 07:40:00,75.3,62.3,25.93,SSE,160,2.0,2.0,64,0.00,,,0.00,411,Wunderground v.1.15,2013-06-03 13:40:00,
2013-06-03 07:45:00,75.5,61.1,25.93,East,84,1.0,2.0,61,0.00,,,0.00,436,Wunderground v.1.15,2013-06-03 13:45:00,
2013-06-03 07:50:00,75.7,61.3,25.93,NE,46,1.0,1.0,61,0.00,,,0.00,459,Wunderground v.1.15,2013-06-03 13:50:00,
2013-06-03 07:55:00,76.0,61.6,25.93,ESE,117,0.0,1.0,61,0.00,,,0.00,475,Wunderground v.1.15,2013-06-03 13:55:00,
2013-06-03 08:01:00,76.6,61.2,25.93,South,169,1.0,1.0,59,0.00,,,0.00,503,Wunderground v.1.15,2013-06-03 14:01:00,
2013-06-03 08:06:00,76.9,61.0,25.93,SE,134,1.0,1.0,58,0.00,,,0.00,520,Wunderground v.1.15,2013-06-03 14:06:00,
2013-06-03 08:15:00,77.3,62.3,25.93,ENE,66,1.0,4.0,60,0.00,,,0.00,561,Wunderground v.1.15,2013-06-03 14:15:00,
2013-06-03 08:20:00,76.9,62.4,25.93,ESE,104,2.0,4.0,61,0.00,,,0.00,571,Wunderground v.1.15,2013-06-03 14:20:00,
2013-06-03 08:25:00,77.5,62.5,25.93,SSE,153,2.0,4.0,60,0.00,,,0.00,587,Wunderground v.1.15,2013-06-03 14:25:00,
2013-06-03 08:30:00,78.0,63.0,25.93,SE,146,2.0,5.0,60,0.00,,,0.00,606,Wunderground v.1.15,2013-06-03 14:30:00,
2013-06-03 08:35:00,78.4,61.9,25.93,SSE,153,3.0,5.0,57,0.00,,,0.00,613,Wunderground v.1.15,2013-06-03 14:35:00,
2013-06-03 08:45:00,79.1,62.6,25.93,SSE,163,2.0,5.0,57,0.00,,,0.00,649,Wunderground v.1.15,2013-06-03 14:45:00,
2013-06-03 08:50:00,79.5,61.4,25.93,ENE,71,2.0,2.0,54,0.00,,,0.00,663,Wunderground v.1.15,2013-06-03 14:50:00,
2013-06-03 08:55:00,79.5,61.9,25.93,SE,140,2.0,4.0,55,0.00,,,0.00,696,Wunderground v.1.15,2013-06-03 14:55:00,
2013-06-03 09:01:00,80.0,61.3,25.93,SE,144,2.0,2.0,53,0.00,,,0.00,696,Wunderground v.1.15,2013-06-03 15:01:00,
2013-06-03 09:11:00,80.8,62.1,25.93,ESE,109,2.0,2.0,53,0.00,,,0.00,721,Wunderground v.1.15,2013-06-03 15:11:00,
2013-06-03 09:20:00,80.4,63.8,25.93,ESE,104,2.0,2.0,57,0.00,,,0.00,768,Wunderground v.1.15,2013-06-03 15:20:00,
2013-06-03 09:25:00,80.8,61.5,25.93,SSE,164,2.0,2.0,52,0.00,,,0.00,789,Wunderground v.1.15,2013-06-03 15:25:00,
2013-06-03 09:30:00,81.1,61.3,25.93,SSE,165,1.0,1.0,51,0.00,,,0.00,802,Wunderground v.1.15,2013-06-03 15:30:00,
2013-06-03 09:35:00,81.5,62.2,25.93,East,88,1.0,3.0,52,0.00,,,0.00,831,Wunderground v.1.15,2013-06-03 15:35:00,
2013-06-03 09:45:00,81.5,61.6,25.93,WNW,294,2.0,2.0,51,0.00,,,0.00,294,Wunderground v.1.15,2013-06-03 15:45:00,
2013-06-03 09:50:00,81.3,62.0,25.93,West,276,2.0,2.0,52,0.00,,,0.00,258,Wunderground v.1.15,2013-06-03 15:50:00,
2013-06-03 09:55:00,81.5,63.3,25.93,North,360,1.0,3.0,54,0.00,,,0.00,754,Wunderground v.1.15,2013-06-03 15:55:00,
2013-06-03 10:01:00,81.3,63.6,25.93,SW,222,2.0,7.0,55,0.00,,,0.00,763,Wunderground v.1.15,2013-06-03 16:01:00,
2013-06-03 10:11:00,81.7,64.0,25.93,SW,220,2.0,2.0,55,0.00,,,0.00,214,Wunderground v.1.15,2013-06-03 16:11:00,
2013-06-03 10:20:00,80.8,64.1,25.93,NW,309,2.0,2.0,57,0.00,,,0.00,250,Wunderground v.1.15,2013-06-03 16:20:00,
2013-06-03 10:25:00,80.6,64.5,25.93,NNE,22,1.0,2.0,58,0.00,,,0.00,768,Wunderground v.1.15,2013-06-03 16:25:00,
2013-06-03 10:30:00,81.0,64.3,25.92,NNW,334,2.0,2.0,57,0.00,,,0.00,601,Wunderground v.1.15,2013-06-03 16:30:00,
2013-06-03 10:35:00,81.5,64.3,25.92,WSW,239,2.0,2.0,56,0.00,,,0.00,578,Wunderground v.1.15,2013-06-03 16:35:00,
2013-06-03 10:45:00,81.7,64.5,25.92,NW,319,2.0,4.0,56,0.00,,,0.00,788,Wunderground v.1.15,2013-06-03 16:45:00,
2013-06-03 10:50:00,81.7,64.5,25.92,NNW,342,3.0,3.0,56,0.00,,,0.00,896,Wunderground v.1.15,2013-06-03 16:50:00,
2013-06-03 10:55:00,82.3,64.5,25.92,West,265,3.0,3.0,55,0.00,,,0.00,874,Wunderground v.1.15,2013-06-03 16:55:00,
2013-06-03 11:00:00,82.9,64.5,25.92,SSE,164,2.0,2.0,54,0.00,,,0.00,696,Wunderground v.1.15,2013-06-03 17:00:00,
2013-06-03 11:07:00,82.5,64.2,25.92,NW,305,1.0,6.0,54,0.00,,,0.00,784,Wunderground v.1.15,2013-06-03 17:07:00,
2013-06-03 11:12:00,82.7,64.4,25.91,West,279,2.0,5.0,54,0.00,,,0.00,809,Wunderground v.1.15,2013-06-03 17:12:00,
2013-06-03 11:17:00,82.9,65.1,25.92,South,190,2.0,5.0,55,0.00,,,0.00,842,Wunderground v.1.15,2013-06-03 17:17:00,
2013-06-03 11:22:00,83.5,65.1,25.91,NW,305,4.0,8.0,54,0.00,,,0.00,816,Wunderground v.1.15,2013-06-03 17:22:00,
2013-06-03 11:28:00,83.3,64.9,25.91,SW,236,4.0,8.0,54,0.00,,,0.00,830,Wunderground v.1.15,2013-06-03 17:28:00,
2013-06-03 11:33:00,82.9,65.6,25.91,WNW,290,2.0,8.0,56,0.00,,,0.00,840,Wunderground v.1.15,2013-06-03 17:33:00,
2013-06-03 11:39:00,82.7,65.9,25.91,WNW,294,10.0,16.0,57,0.00,,,0.00,893,Wunderground v.1.15,2013-06-03 17:39:00,
2013-06-03 11:44:00,82.7,65.4,25.90,West,265,2.0,9.0,56,0.00,,,0.00,872,Wunderground v.1.15,2013-06-03 17:44:00,
2013-06-03 11:50:00,83.1,65.8,25.90,West,263,3.0,3.0,56,0.00,,,0.00,882,Wunderground v.1.15,2013-06-03 17:50:00,
2013-06-03 11:55:00,83.5,66.2,25.90,ESE,117,4.0,4.0,56,0.00,,,0.00,378,Wunderground v.1.15,2013-06-03 17:55:00,
2013-06-03 12:00:00,82.9,65.6,25.90,NW,316,3.0,3.0,56,0.00,,,0.00,246,Wunderground v.1.15,2013-06-03 18:00:00,
2013-06-03 12:10:00,80.4,65.2,25.90,West,279,3.0,5.0,60,0.00,,,0.00,132,Wunderground v.1.15,2013-06-03 18:10:00,
2013-06-03 12:16:00,78.9,65.2,25.90,WSW,255,3.0,5.0,63,0.00,,,0.00,121,Wunderground v.1.15,2013-06-03 18:16:00,
2013-06-03 12:21:00,78.0,65.3,25.90,East,101,2.0,2.0,65,0.00,,,0.00,63,Wunderground v.1.15,2013-06-03 18:21:00,
2013-06-03 12:30:00,75.0,67.7,25.90,ESE,121,2.0,2.0,78,0.49,,,0.07,54,Wunderground v.1.15,2013-06-03 18:30:00,
2013-06-03 12:35:00,73.6,68.1,25.90,NW,324,2.0,2.0,83,0.26,,,0.09,60,Wunderground v.1.15,2013-06-03 18:35:00,
2013-06-03 12:40:00,72.4,66.2,25.91,NNW,346,2.0,2.0,81,1.41,,,0.20,58,Wunderground v.1.15,2013-06-03 18:40:00,
2013-06-03 12:45:00,72.0,67.9,25.91,ESE,107,2.0,2.0,87,0.46,,,0.25,49,Wunderground v.1.15,2013-06-03 18:45:00,
2013-06-03 12:50:00,71.4,67.3,25.91,ESE,107,1.0,1.0,87,0.20,,,0.27,39,Wunderground v.1.15,2013-06-03 18:50:00,
2013-06-03 13:00:00,71.4,68.3,25.91,ESE,107,0.0,0.0,90,2.02,,,0.34,54,Wunderground v.1.15,2013-06-03 19:00:00,
2013-06-03 13:05:00,70.8,68.0,25.91,SSE,148,0.0,6.0,91,0.51,,,0.40,72,Wunderground v.1.15,2013-06-03 19:05:00,
2013-06-03 13:10:00,70.7,68.3,25.90,SSE,148,1.0,1.0,92,0.46,,,0.43,77,Wunderground v.1.15,2013-06-03 19:10:00,
2013-06-03 13:15:00,70.2,67.1,25.90,SSE,148,1.0,1.0,90,0.27,,,0.46,98,Wunderground v.1.15,2013-06-03 19:15:00,
2013-06-03 13:20:00,70.2,68.4,25.90,SSE,156,1.0,4.0,94,0.18,,,0.46,100,Wunderground v.1.15,2013-06-03 19:20:00,
2013-06-03 13:26:00,70.0,68.2,25.90,SE,140,1.0,4.0,94,0.07,,,0.46,105,Wunderground v.1.15,2013-06-03 19:26:00,
2013-06-03 13:35:00,69.8,66.7,25.90,SE,140,0.0,1.0,90,0.05,,,0.47,142,Wunderground v.1.15,2013-06-03 19:35:00,
2013-06-03 13:40:00,69.7,66.6,25.90,SE,140,0.0,0.0,90,0.05,,,0.47,167,Wunderground v.1.15,2013-06-03 19:40:00,
2013-06-03 13:45:00,69.7,67.0,25.89,SE,140,0.0,1.0,91,0.04,,,0.47,176,Wunderground v.1.15,2013-06-03 19:45:00,
2013-06-03 13:55:00,70.0,67.3,25.89,ENE,78,0.0,0.0,91,0.00,,,0.47,221,Wunderground v.1.15,2013-06-03 19:55:00,
2013-06-03 14:01:00,70.3,67.9,25.89,East,93,0.0,0.0,92,0.00,,,0.47,227,Wunderground v.1.15,2013-06-03 20:01:00,
2013-06-03 14:10:00,70.3,65.9,25.88,East,93,0.0,0.0,86,0.00,,,0.47,229,Wunderground v.1.15,2013-06-03 20:10:00,
2013-06-03 14:15:00,70.8,67.1,25.88,East,93,0.0,0.0,88,0.00,,,0.47,214,Wunderground v.1.15,2013-06-03 20:15:00,
2013-06-03 14:21:00,71.2,67.1,25.88,East,93,0.0,0.0,87,0.00,,,0.48,155,Wunderground v.1.15,2013-06-03 20:21:00,
2013-06-03 14:26:00,71.2,66.8,25.88,East,93,0.0,0.0,86,0.00,,,0.48,148,Wunderground v.1.15,2013-06-03 20:26:00,
2013-06-03 14:31:00,71.5,67.1,25.88,East,93,0.0,0.0,86,0.00,,,0.48,179,Wunderground v.1.15,2013-06-03 20:31:00,
2013-06-03 14:40:00,71.9,66.8,25.88,East,93,0.0,0.0,84,0.00,,,0.48,174,Wunderground v.1.15,2013-06-03 20:40:00,
2013-06-03 14:45:00,72.2,67.4,25.88,East,93,0.0,0.0,85,0.00,,,0.48,135,Wunderground v.1.15,2013-06-03 20:45:00,
2013-06-03 14:50:00,72.6,67.8,25.88,East,93,0.0,0.0,85,0.00,,,0.48,107,Wunderground v.1.15,2013-06-03 20:50:00,
2013-06-03 14:55:00,72.7,67.9,25.87,East,93,0.0,0.0,85,0.00,,,0.48,95,Wunderground v.1.15,2013-06-03 20:55:00,
2013-06-03 15:05:00,72.9,67.4,25.87,East,93,0.0,0.0,83,0.00,,,0.48,128,Wunderground v.1.15,2013-06-03 21:05:00,
2013-06-03 15:10:00,72.9,67.4,25.87,East,93,0.0,0.0,83,0.00,,,0.48,123,Wunderground v.1.15,2013-06-03 21:10:00,
2013-06-03 15:15:00,73.1,67.6,25.87,East,93,0.0,0.0,83,0.00,,,0.48,134,Wunderground v.1.15,2013-06-03 21:15:00,
2013-06-03 15:21:00,73.2,67.7,25.87,East,93,0.0,0.0,83,0.00,,,0.48,134,Wunderground v.1.15,2013-06-03 21:21:00,
2013-06-03 15:26:00,73.4,67.9,25.87,East,93,0.0,0.0,83,0.00,,,0.48,116,Wunderground v.1.15,2013-06-03 21:26:00,
2013-06-03 15:35:00,73.4,67.2,25.87,East,93,0.0,0.0,81,0.00,,,0.48,121,Wunderground v.1.15,2013-06-03 21:35:00,
2013-06-03 15:40:00,73.6,67.8,25.87,East,93,0.0,0.0,82,0.00,,,0.48,109,Wunderground v.1.15,2013-06-03 21:40:00,
2013-06-03 15:45:00,73.6,67.8,25.87,East,93,0.0,0.0,82,0.00,,,0.48,95,Wunderground v.1.15,2013-06-03 21:45:00,
2013-06-03 15:50:00,73.4,67.2,25.87,East,93,0.0,0.0,81,0.00,,,0.48,81,Wunderground v.1.15,2013-06-03 21:50:00,
2013-06-03 15:55:00,73.4,67.2,25.86,East,93,0.0,0.0,81,0.00,,,0.48,76,Wunderground v.1.15,2013-06-03 21:55:00,
2013-06-03 16:05:00,73.4,67.9,25.87,East,93,0.0,0.0,83,0.00,,,0.48,37,Wunderground v.1.15,2013-06-03 22:05:00,
2013-06-03 16:10:00,73.2,67.4,25.87,East,93,0.0,0.0,82,0.00,,,0.48,26,Wunderground v.1.15,2013-06-03 22:10:00,
2013-06-03 16:15:00,73.2,67.4,25.87,WSW,250,0.0,0.0,82,0.00,,,0.48,14,Wunderground v.1.15,2013-06-03 22:15:00,
2013-06-03 16:20:00,73.1,67.6,25.87,WSW,242,1.0,1.0,83,0.00,,,0.48,12,Wunderground v.1.15,2013-06-03 22:20:00,
2013-06-03 16:25:00,72.9,67.8,25.87,WSW,251,1.0,1.0,84,0.00,,,0.48,19,Wunderground v.1.15,2013-06-03 22:25:00,
2013-06-03 16:31:00,72.6,67.8,25.87,WSW,244,2.0,5.0,85,0.00,,,0.48,14,Wunderground v.1.15,2013-06-03 22:31:00,
2013-06-03 16:36:00,72.4,68.0,25.87,West,262,3.0,5.0,86,0.00,,,0.48,7,Wunderground v.1.15,2013-06-03 22:36:00,
2013-06-03 16:41:00,72.0,67.6,25.87,WSW,258,3.0,4.0,86,0.00,,,0.48,9,Wunderground v.1.15,2013-06-03 22:41:00,
2013-06-03 16:50:00,71.4,67.0,25.87,SW,230,3.0,3.0,86,0.00,,,0.48,5,Wunderground v.1.15,2013-06-03 22:50:00,
2013-06-03 16:56:00,71.2,66.8,25.87,WNW,296,2.0,3.0,86,0.00,,,0.48,5,Wunderground v.1.15,2013-06-03 22:56:00,
2013-06-03 17:01:00,71.0,66.9,25.87,NNW,336,1.0,1.0,87,0.00,,,0.49,5,Wunderground v.1.15,2013-06-03 23:01:00,
2013-06-03 17:10:00,70.7,67.0,25.88,WNW,296,1.0,1.0,88,0.28,,,0.53,0,Wunderground v.1.15,2013-06-03 23:10:00,
2013-06-03 17:15:00,70.5,66.8,25.88,WNW,296,1.0,1.0,88,0.44,,,0.57,0,Wunderground v.1.15,2013-06-03 23:15:00,
2013-06-03 17:20:00,70.0,66.3,25.88,WNW,290,0.0,1.0,88,0.31,,,0.60,0,Wunderground v.1.15,2013-06-03 23:20:00,
2013-06-03 17:26:00,69.7,66.3,25.88,WNW,289,1.0,1.0,89,0.09,,,0.61,0,Wunderground v.1.15,2013-06-03 23:26:00,
2013-06-03 17:35:00,69.8,68.0,25.89,WNW,290,0.0,0.0,94,0.06,,,0.61,0,Wunderground v.1.15,2013-06-03 23:35:00,
2013-06-03 17:40:00,69.7,67.6,25.89,WNW,289,0.0,0.0,93,0.04,,,0.61,0,Wunderground v.1.15,2013-06-03 23:40:00,
2013-06-03 17:45:00,69.5,67.1,25.90,WNW,290,0.0,0.0,92,0.04,,,0.61,0,Wunderground v.1.15,2013-06-03 23:45:00,
2013-06-03 17:50:00,69.5,67.4,25.90,WNW,290,0.0,0.0,93,0.04,,,0.61,0,Wunderground v.1.15,2013-06-03 23:50:00,
2013-06-03 17:55:00,69.3,67.5,25.90,WNW,289,0.0,0.0,94,0.04,,,0.61,0,Wunderground v.1.15,2013-06-03 23:55:00,
2013-06-03 18:01:00,69.3,67.5,25.90,WNW,290,0.0,0.0,94,0.00,,,0.61,0,Wunderground v.1.15,2013-06-04 00:01:00,
2013-06-03 18:10:00,69.2,67.4,25.90,WNW,290,0.0,0.0,94,0.00,,,0.61,0,Wunderground v.1.15,2013-06-04 00:10:00,
2013-06-03 18:15:00,69.2,67.4,25.90,WNW,290,0.0,0.0,94,0.00,,,0.61,0,Wunderground v.1.15,2013-06-04 00:15:00,
2013-06-03 18:20:00,69.3,67.8,25.90,WNW,290,0.0,0.0,95,0.00,,,0.61,0,Wunderground v.1.15,2013-06-04 00:20:00,
2013-06-03 18:25:00,69.3,67.8,25.91,WNW,290,0.0,0.0,95,0.00,,,0.61,0,Wunderground v.1.15,2013-06-04 00:25:00,
2013-06-03 18:31:00,69.3,67.8,25.91,WNW,289,0.0,0.0,95,0.00,,,0.61,0,Wunderground v.1.15,2013-06-04 00:31:00,
2013-06-03 18:40:00,69.2,67.7,25.91,WNW,290,0.0,0.0,95,0.00,,,0.61,0,Wunderground v.1.15,2013-06-04 00:40:00,
2013-06-03 18:45:00,69.2,67.7,25.91,WNW,289,0.0,0.0,95,0.00,,,0.61,0,Wunderground v.1.15,2013-06-04 00:45:00,
2013-06-03 18:50:00,69.2,67.7,25.91,WNW,290,0.0,0.0,95,0.00,,,0.61,0,Wunderground v.1.15,2013-06-04 00:50:00,
2013-06-03 18:56:00,69.2,67.7,25.91,WNW,290,0.0,0.0,95,0.00,,,0.61,0,Wunderground v.1.15,2013-06-04 00:56:00,
2013-06-03 19:01:00,69.2,68.0,25.91,WNW,290,0.0,0.0,96,0.00,,,0.61,0,Wunderground v.1.15,2013-06-04 01:01:00,
2013-06-03 19:10:00,69.2,68.0,25.91,WNW,289,0.0,0.0,96,0.00,,,0.61,0,Wunderground v.1.15,2013-06-04 01:10:00,
2013-06-03 19:15:00,69.0,67.8,25.91,WNW,290,0.0,0.0,96,0.00,,,0.61,0,Wunderground v.1.15,2013-06-04 01:15:00,
2013-06-03 19:20:00,69.0,67.8,25.91,WNW,290,0.0,0.0,96,0.00,,,0.61,0,Wunderground v.1.15,2013-06-04 01:20:00,
2013-06-03 19:26:00,69.0,67.8,25.91,WNW,290,0.0,0.0,96,0.00,,,0.61,0,Wunderground v.1.15,2013-06-04 01:26:00,
2013-06-03 19:35:00,69.0,67.8,25.92,WNW,289,0.0,0.0,96,0.00,,,0.61,0,Wunderground v.1.15,2013-06-04 01:35:00,
2013-06-03 19:40:00,69.0,67.8,25.92,WNW,289,0.0,0.0,96,0.00,,,0.62,0,Wunderground v.1.15,2013-06-04 01:40:00,
2013-06-03 19:45:00,69.2,68.0,25.92,WNW,290,0.0,0.0,96,0.00,,,0.62,0,Wunderground v.1.15,2013-06-04 01:45:00,
2013-06-03 19:50:00,69.0,67.8,25.92,WNW,290,0.0,0.0,96,0.00,,,0.62,0,Wunderground v.1.15,2013-06-04 01:50:00,
2013-06-03 19:55:00,69.2,68.0,25.92,WNW,290,0.0,0.0,96,0.00,,,0.62,0,Wunderground v.1.15,2013-06-04 01:55:00,
2013-06-03 20:01:00,69.0,67.5,25.93,WNW,289,0.0,0.0,95,0.00,,,0.62,0,Wunderground v.1.15,2013-06-04 02:01:00,
2013-06-03 20:10:00,69.0,67.8,25.93,WNW,290,0.0,0.0,96,0.00,,,0.62,0,Wunderground v.1.15,2013-06-04 02:10:00,
2013-06-03 20:15:00,69.0,67.8,25.93,WNW,290,0.0,0.0,96,0.00,,,0.62,0,Wunderground v.1.15,2013-06-04 02:15:00,
2013-06-03 20:20:00,69.0,67.8,25.93,WNW,289,0.0,0.0,96,0.00,,,0.62,0,Wunderground v.1.15,2013-06-04 02:20:00,
2013-06-03 20:25:00,69.0,67.5,25.93,WNW,290,0.0,0.0,95,0.00,,,0.62,0,Wunderground v.1.15,2013-06-04 02:25:00,
2013-06-03 20:31:00,68.8,67.6,25.94,WNW,290,0.0,0.0,96,0.00,,,0.62,0,Wunderground v.1.15,2013-06-04 02:31:00,
2013-06-03 20:36:00,68.7,67.5,25.94,WNW,290,0.0,0.0,96,0.00,,,0.62,0,Wunderground v.1.15,2013-06-04 02:36:00,
2013-06-03 20:41:00,68.7,67.5,25.94,WNW,290,0.0,0.0,96,0.00,,,0.62,0,Wunderground v.1.15,2013-06-04 02:41:00,
2013-06-03 20:46:00,68.7,67.5,25.94,WNW,289,0.0,0.0,96,0.00,,,0.62,0,Wunderground v.1.15,2013-06-04 02:46:00,
2013-06-03 20:55:00,68.5,67.3,25.95,WNW,290,0.0,0.0,96,0.00,,,0.62,0,Wunderground v.1.15,2013-06-04 02:55:00,
2013-06-03 21:00:00,68.5,67.3,25.95,WNW,289,0.0,0.0,96,0.00,,,0.62,0,Wunderground v.1.15,2013-06-04 03:00:00,
2013-06-03 21:05:00,68.3,67.1,25.95,WNW,290,0.0,0.0,96,0.00,,,0.62,0,Wunderground v.1.15,2013-06-04 03:05:00,
2013-06-03 21:10:00,68.2,67.0,25.95,WNW,290,0.0,0.0,96,0.00,,,0.62,0,Wunderground v.1.15,2013-06-04 03:10:00,
2013-06-03 21:20:00,67.8,66.6,25.95,WNW,290,0.0,0.0,96,0.00,,,0.62,0,Wunderground v.1.15,2013-06-04 03:20:00,
2013-06-03 21:25:00,67.8,66.6,25.96,WNW,290,0.0,0.0,96,0.00,,,0.62,0,Wunderground v.1.15,2013-06-04 03:25:00,
2013-06-03 21:30:00,67.7,66.2,25.96,WNW,289,0.0,0.0,95,0.00,,,0.62,0,Wunderground v.1.15,2013-06-04 03:30:00,
2013-06-03 21:35:00,67.5,66.0,25.96,WNW,290,0.0,1.0,95,0.00,,,0.62,0,Wunderground v.1.15,2013-06-04 03:35:00,
2013-06-03 21:41:00,67.2,65.7,25.96,WNW,290,0.0,0.0,95,0.00,,,0.62,0,Wunderground v.1.15,2013-06-04 03:41:00,
2013-06-03 21:46:00,67.2,65.4,25.95,East,98,0.0,0.0,94,0.00,,,0.62,0,Wunderground v.1.15,2013-06-04 03:46:00,
2013-06-03 21:51:00,67.2,65.4,25.95,East,96,0.0,0.0,94,0.00,,,0.62,0,Wunderground v.1.15,2013-06-04 03:51:00,
2013-06-03 22:00:00,67.2,64.5,25.95,NW,321,1.0,3.0,91,0.00,,,0.62,0,Wunderground v.1.15,2013-06-04 04:00:00,
2013-06-03 22:05:00,67.2,63.8,25.95,SE,132,1.0,3.0,89,0.00,,,0.62,0,Wunderground v.1.15,2013-06-04 04:05:00,
2013-06-03 22:10:00,67.2,63.8,25.95,SE,131,1.0,2.0,89,0.00,,,0.62,0,Wunderground v.1.15,2013-06-04 04:10:00,
2013-06-03 22:16:00,67.2,63.8,25.94,ENE,77,0.0,2.0,89,0.00,,,0.62,0,Wunderground v.1.15,2013-06-04 04:16:00,
2013-06-03 22:20:00,67.2,63.8,25.94,ENE,77,0.0,1.0,89,0.00,,,0.62,0,Wunderground v.1.15,2013-06-04 04:20:00,
2013-06-03 22:25:00,67.0,63.6,25.94,ENE,77,0.0,1.0,89,0.00,,,0.62,0,Wunderground v.1.15,2013-06-04 04:25:00,
2013-06-03 22:30:00,67.0,64.0,25.94,ENE,76,0.0,0.0,90,0.00,,,0.62,0,Wunderground v.1.15,2013-06-04 04:30:00,
2013-06-03 22:35:00,66.8,63.8,25.94,ENE,77,0.0,1.0,90,0.00,,,0.62,0,Wunderground v.1.15,2013-06-04 04:35:00,
2013-06-03 22:40:00,66.8,64.1,25.94,ENE,77,0.0,0.0,91,0.00,,,0.62,0,Wunderground v.1.15,2013-06-04 04:40:00,
2013-06-03 22:45:00,66.7,64.0,25.94,ENE,77,0.0,1.0,91,0.00,,,0.62,0,Wunderground v.1.15,2013-06-04 04:45:00,
2013-06-03 22:50:00,66.5,63.8,25.94,ENE,77,0.0,0.0,91,0.00,,,0.62,0,Wunderground v.1.15,2013-06-04 04:50:00,
2013-06-03 22:56:00,66.5,64.1,25.94,ENE,77,0.0,0.0,92,0.00,,,0.62,0,Wunderground v.1.15,2013-06-04 04:56:00,
2013-06-03 23:05:00,66.2,64.1,25.94,ENE,77,0.0,0.0,93,0.00,,,0.62,0,Wunderground v.1.15,2013-06-04 05:05:00,
2013-06-03 23:10:00,66.2,64.1,25.94,ENE,76,0.0,0.0,93,0.00,,,0.62,0,Wunderground v.1.15,2013-06-04 05:10:00,
2013-06-03 23:16:00,66.0,64.2,25.94,ENE,76,0.0,1.0,94,0.00,,,0.62,0,Wunderground v.1.15,2013-06-04 05:16:00,
2013-06-03 23:21:00,65.9,64.1,25.94,ENE,77,1.0,1.0,94,0.00,,,0.62,0,Wunderground v.1.15,2013-06-04 05:21:00,
2013-06-03 23:26:00,65.9,64.1,25.94,ENE,76,0.0,1.0,94,0.00,,,0.62,0,Wunderground v.1.15,2013-06-04 05:26:00,
2013-06-03 23:31:00,65.7,63.9,25.94,ENE,77,0.0,0.0,94,0.00,,,0.62,0,Wunderground v.1.15,2013-06-04 05:31:00,
2013-06-03 23:40:00,65.5,63.7,25.94,ENE,77,0.0,0.0,94,0.00,,,0.62,0,Wunderground v.1.15,2013-06-04 05:40:00,
2013-06-03 23:45:00,65.7,63.9,25.93,East,79,0.0,1.0,94,0.00,,,0.62,0,Wunderground v.1.15,2013-06-04 05:45:00,
2013-06-03 23:50:00,65.7,63.6,25.93,East,79,0.0,2.0,93,0.00,,,0.62,0,Wunderground v.1.15,2013-06-04 05:50:00,
2013-06-03 23:55:00,65.7,63.6,25.93,SSE,157,1.0,2.0,93,0.00,,,0.62,0,Wunderground v.1.15,2013-06-04 05:55:00,